Oak Creek, Colorado
Current Conditions -  °F | °C
As of 2:55 PM on Tuesday 25 Nov 2014 (Local Time) from KSBS Reporting Station
Overcast Overcast  
Wind Chill: 22°   Ceiling: 1600
Heat Index: 22°   Visibility: 1.5mi
Dew Point: 20°   Wind: 0mph
Humidity: 93%   Direction: NA
Pressure: 30.16"   Gusts: NA
Location:  40.27°N, 106.96°W
Report Text: KSBS 252155Z AUTO 00000KT 1 1/2SM SCT005 BKN016 OVC020 M05/M06 A3016 RMK AO1 T10541064
Loading
Personal Weather Stations






























Interactive Weather Map New forecast layout! Learn more

10-Day Weather Forecast

Advertisements
Track Severe Weather on mobile